ADDS METAR Data INFO
IDs: Format: Raw Decoded Include TAF

Data at: 2035 UTC 22 Feb 2018

KBZN 221956Z 05003KT 10SM OVC065 M09/M16 A3002 RMK AO2 SLP249 T10941156
KBZN 221856Z 06003KT 10SM BKN070 M11/M16 A3003 RMK AO2 SLP254 T11061161
KBZN 221756Z 00000KT 10SM BKN070 M12/M17 A3003 RMK AO2 SLP256 T11171172 11117 21189 51007
KBZN 221656Z 00000KT 10SM BKN065 M14/M19 A3002 RMK AO2 SLP253 T11391189
KBZN 221556Z 00000KT 10SM FEW060 M16/M19 A3002 RMK AO2 SLP251 T11611189
KBZN 221456Z 00000KT 10SM FEW055 OVC090 M17/M19 A3000 RMK AO2 SLP253 T11671194 53006
KBZN 221356Z 07006KT 10SM OVC090 M19/M22 A2998 RMK AO2 SLP245 T11891222
KBZN 221256Z 25004KT 10SM OVC095 M18/M21 A2998 RMK AO2 SLP240 T11781206
KBZN 221156Z AUTO 00000KT 10SM BKN090 M19/M22 A2998 RMK AO2 SLP242 T11891217 11150 21206 55006
KBZN 221056Z AUTO 00000KT 10SM SCT085 M18/M22 A2997 RMK AO2 SLP234 T11831217
KBZN 220956Z AUTO 16008KT 10SM CLR M19/M22 A2998 RMK AO2 SLP240 T11891222
KBZN 220856Z AUTO 14010KT 10SM FEW070 M18/M22 A3000 RMK AO2 SLP249 T11831217 58000
KBZN 220756Z AUTO 00000KT 10SM CLR M18/M21 A3000 RMK AO2 SLP252 T11831206
KBZN 220656Z 11006KT 10SM CLR M17/M20 A3001 RMK AO2 SLP255 T11721200 410941261
KBZN 220556Z 14004KT 10SM CLR M18/M22 A3001 RMK AO2 SLP261 T11781217 11106 21178 58001
KBZN 220456Z 17006KT 10SM OVC080 M15/M19 A3001 RMK AO2 SLP260 T11501189
KBZN 220356Z 00000KT 10SM CLR M13/M19 A3001 RMK AO2 SLP259 T11331189
KBZN 212356Z 00000KT 10SM CLR M12/M17 A3001 RMK AO2 SLP254 T11171172 11094 21183 56007
KBZN 212256Z 00000KT 10SM CLR M10/M17 A3002 RMK AO2 SLP258 T11001172
KBZN 212156Z 10003KT 10SM CLR M10/M18 A3002 RMK AO2 SLP256 T11001178
KBZN 212056Z 08003KT 10SM CLR M12/M18 A3004 RMK AO2 SLP264 T11171178 58013
KBZN 211956Z 07003KT 10SM CLR M13/M19 A3005 RMK AO2 SLP278 T11331194
KBZN 211856Z 09003KT 7SM CLR M16/M21 A3007 RMK AO2 SLP285 T11561206
KBZN 211827Z 00000KT 6SM FEW090 M18/M21 A3007 RMK AO2 T11781206
KBZN 211756Z 02003KT 10SM BKN110 M18/M22 A3008 RMK AO2 SLP295 T11781217 11178 21261 58004
KBZN 211656Z 02006KT 10SM BKN120 M20/M24 A3009 RMK AO2 SLP304 T12001239
KBZN 211556Z 20005KT 10SM CLR M21/M23 A3009 RMK AO2 SLP305 T12061228
KBZN 211507Z 00000KT 10SM FEW110 M26/M28 A3009 RMK AO2 T12611278
KBZN 211456Z 00000KT 3SM BR FEW110 M22/M24 A3009 RMK AO2 SLP302 T12171239 55000
KBZN 211449Z 00000KT 3SM HZ CLR M22/M24 A3009 RMK AO2 T12171244
KBZN 211441Z 19003KT 2 1/2SM HZ CLR M22/M24 A3009 RMK AO2 T12171244
KBZN 211356Z 00000KT 10SM CLR M22/M24 A3008 RMK AO2 SLP302 T12171244
KBZN 211256Z 00000KT 10SM BKN075 BKN090 BKN120 M21/M24 A3009 RMK AO2 SLP297 T12111244